createdAt,value
2022-08-04T16:57:15.881Z,96519.66
2022-08-04T16:59:18.933Z,96519.69
2022-08-04T17:01:33.788Z,96520.25
2022-08-04T17:03:39.188Z,96524.94
2022-08-04T17:05:43.333Z,96519.06
2022-08-04T17:08:02.413Z,96518.00
2022-08-04T17:10:10.849Z,96518.03
2022-08-04T17:12:15.430Z,96523.69
2022-08-04T17:14:23.077Z,96521.66
2022-08-04T17:16:29.564Z,96524.59
2022-08-04T17:18:35.141Z,96511.38
2022-08-04T17:21:01.877Z,96510.25
2022-08-04T17:24:15.528Z,96501.56
2022-08-04T17:25:57.333Z,96506.38
2022-08-04T17:28:20.457Z,96513.97
2022-08-04T17:30:28.458Z,96505.28
2022-08-04T17:32:31.533Z,96508.16
2022-08-04T17:34:34.597Z,96503.03
2022-08-04T17:36:39.538Z,96497.56
2022-08-04T17:38:51.594Z,96495.38
2022-08-04T17:41:00.018Z,96497.19
2022-08-04T17:44:03.724Z,96501.72
2022-08-04T17:48:46.105Z,96496.50
2022-08-04T17:50:49.179Z,96502.78
2022-08-04T17:53:00.083Z,96497.50
2022-08-04T17:55:03.935Z,96502.41
2022-08-04T17:57:19.954Z,96500.59
2022-08-04T17:59:52.073Z,96501.91
2022-08-04T18:01:55.310Z,96498.25
2022-08-04T18:03:59.836Z,96505.31
2022-08-04T18:06:12.881Z,96503.81
2022-08-04T18:08:40.413Z,96505.53
2022-08-04T18:10:51.809Z,96504.03
2022-08-04T18:13:14.356Z,96506.41
2022-08-04T18:15:25.554Z,96511.09
2022-08-04T18:18:22.177Z,96508.00
2022-08-04T18:20:14.273Z,96513.50
2022-08-04T18:22:28.114Z,96511.91
2022-08-04T18:24:55.622Z,96515.78
2022-08-04T18:26:56.767Z,96527.53
2022-08-04T18:28:59.981Z,96517.38
2022-08-04T18:31:09.227Z,96517.38
2022-08-04T18:33:40.336Z,96519.69
2022-08-04T18:36:34.921Z,96518.09
2022-08-04T18:38:06.782Z,96519.56
2022-08-04T18:40:26.701Z,96517.53
2022-08-04T18:42:37.261Z,96514.69
2022-08-04T18:44:49.389Z,96508.75
2022-08-04T18:46:57.944Z,96509.13
2022-08-04T18:50:31.936Z,96516.50
2022-08-04T18:51:48.851Z,96514.91
2022-08-04T18:56:29.319Z,96524.53
2022-08-04T18:58:33.030Z,96522.94
2022-08-04T19:00:36.513Z,96519.78
2022-08-04T19:02:40.798Z,96524.78
2022-08-04T19:04:44.683Z,96531.41
2022-08-04T19:06:53.020Z,96536.88
2022-08-04T19:08:56.213Z,96545.44
2022-08-04T19:11:01.404Z,96545.00
2022-08-04T19:13:25.432Z,96550.81
2022-08-04T19:15:33.931Z,96561.66
2022-08-04T19:17:57.311Z,96568.59
2022-08-04T19:20:03.064Z,96573.19
2022-08-04T19:22:07.375Z,96581.75
2022-08-04T19:24:32.843Z,96587.94
2022-08-04T19:26:37.549Z,96592.13
2022-08-04T19:28:41.803Z,96601.84
2022-08-04T19:30:50.191Z,96608.38
2022-08-04T19:32:53.256Z,96608.72
2022-08-04T19:34:55.951Z,96613.41
2022-08-04T19:37:00.431Z,96611.78
2022-08-04T19:39:11.686Z,96627.41
2022-08-04T19:41:15.118Z,96625.00
2022-08-04T19:43:22.951Z,96626.03
2022-08-04T19:45:41.914Z,96631.53
2022-08-04T19:48:16.761Z,96634.16
2022-08-04T19:50:11.700Z,96636.41
2022-08-04T19:52:33.290Z,96647.38
2022-08-04T19:54:41.327Z,96638.69
2022-08-04T19:56:46.408Z,96657.88
2022-08-04T19:58:54.331Z,96659.34
2022-08-04T20:00:57.589Z,96672.25
2022-08-04T20:03:00.597Z,96669.06
2022-08-04T20:05:03.389Z,96677.59
2022-08-04T20:07:14.507Z,96676.13
2022-08-04T20:09:25.590Z,96689.00
2022-08-04T20:11:29.729Z,96700.75
2022-08-04T20:13:38.694Z,96697.22
2022-08-04T20:15:41.773Z,96699.16
2022-08-04T20:18:34.997Z,96707.38
2022-08-04T20:20:23.598Z,96710.47
2022-08-04T20:22:52.088Z,96723.34
2022-08-04T20:25:00.619Z,96736.25
2022-08-04T20:27:16.146Z,96738.34
2022-08-04T20:29:20.698Z,96737.28
2022-08-04T20:31:43.138Z,96714.72
2022-08-04T20:33:53.844Z,96710.91
2022-08-04T20:36:05.351Z,96713.25
2022-08-04T20:38:09.453Z,96718.63
2022-08-04T20:40:34.544Z,96711.41
2022-08-04T20:42:37.435Z,96713.06
2022-08-04T20:44:42.372Z,96709.59
2022-08-04T20:46:49.465Z,96704.53
2022-08-04T20:48:53.795Z,96703.34
2022-08-04T20:50:56.712Z,96697.59
2022-08-04T20:53:00.382Z,96695.53
2022-08-04T20:55:03.397Z,96697.13
2022-08-04T20:57:08.347Z,96693.47
2022-08-04T20:59:12.226Z,96691.88
2022-08-04T21:01:20.383Z,96693.66
2022-08-04T21:03:38.758Z,96694.13
2022-08-04T21:05:53.433Z,96696.38
2022-08-04T21:07:57.393Z,96693.19
2022-08-04T21:10:00.394Z,96696.59
2022-08-04T21:12:04.037Z,96707.53
2022-08-04T21:14:08.433Z,96706.38
2022-08-04T21:18:40.581Z,96711.53
2022-08-04T21:20:47.978Z,96711.69
